createdAt,value
2023-03-12T00:02:22.301Z,3.70
2023-03-12T00:07:25.305Z,2.77
2023-03-12T00:12:28.216Z,3.87
2023-03-12T00:17:31.358Z,4.10
2023-03-12T00:22:34.912Z,4.70
2023-03-12T00:27:38.061Z,4.37
2023-03-12T05:35:21.107Z,3.70
2023-03-12T05:40:23.936Z,5.23
2023-03-12T05:45:26.870Z,3.87
2023-03-12T05:50:29.755Z,4.20
2023-03-12T05:55:36.655Z,2.87
2023-03-12T06:00:41.683Z,3.20
2023-03-12T06:05:46.217Z,4.53
2023-03-12T06:10:52.181Z,3.17
2023-03-12T06:15:55.070Z,3.33
2023-03-12T06:21:18.145Z,3.03
2023-03-12T06:26:22.915Z,2.87
2023-03-12T06:31:25.798Z,4.10
2023-03-12T06:36:28.757Z,3.73
2023-03-12T06:41:31.619Z,4.73
2023-03-12T06:46:34.699Z,4.60
2023-03-12T06:51:37.836Z,3.83
2023-03-12T06:56:40.904Z,3.63
2023-03-12T07:01:43.736Z,2.23
2023-03-12T07:06:50.526Z,3.60
2023-03-12T07:11:53.715Z,2.53
2023-03-12T07:16:57.993Z,4.20
2023-03-12T07:22:01.194Z,2.80
2023-03-12T07:27:04.226Z,2.50
2023-03-12T07:32:07.378Z,1.97
2023-03-12T07:37:10.526Z,3.10
2023-03-12T07:42:13.710Z,3.20
2023-03-12T07:47:24.140Z,2.30
2023-03-12T07:52:27.633Z,2.30
2023-03-12T07:57:30.859Z,2.77
2023-03-12T08:02:34.743Z,3.57
2023-03-12T08:07:38.002Z,2.27
2023-03-12T08:12:41.217Z,2.77
2023-03-12T08:17:44.180Z,3.17
2023-03-12T08:22:47.304Z,2.67
2023-03-12T08:27:50.404Z,2.93
2023-03-12T08:32:53.677Z,2.97
2023-03-12T08:37:57.092Z,2.57
2023-03-12T08:43:00.211Z,2.43
2023-03-12T08:48:04.097Z,4.07
2023-03-12T08:53:07.304Z,2.20
2023-03-12T08:58:10.385Z,3.13
2023-03-12T09:03:14.998Z,2.93
2023-03-12T09:08:18.834Z,3.23
2023-03-12T09:13:21.669Z,2.30
2023-03-12T09:18:24.563Z,2.20
2023-03-12T09:23:27.776Z,2.50
2023-03-12T09:28:30.579Z,2.20
2023-03-12T09:33:35.951Z,1.80
2023-03-12T09:38:39.291Z,2.20
2023-03-12T09:43:58.939Z,2.87
2023-03-12T09:49:05.470Z,2.27
2023-03-12T09:54:34.992Z,2.30
2023-03-12T09:59:37.883Z,2.40
2023-03-12T10:04:59.368Z,2.13
2023-03-12T10:10:36.316Z,2.87
2023-03-12T10:15:49.483Z,1.67
2023-03-12T10:20:52.369Z,1.63
2023-03-12T10:25:57.997Z,1.63
2023-03-12T10:31:07.908Z,1.63
2023-03-12T10:36:21.283Z,1.30
2023-03-12T10:41:28.842Z,1.80
2023-03-12T10:46:41.195Z,2.03
2023-03-12T10:52:05.132Z,1.67
2023-03-12T10:57:09.293Z,1.37
2023-03-12T11:02:32.521Z,1.60
2023-03-12T11:07:35.969Z,1.70
2023-03-12T11:12:52.223Z,2.03
2023-03-12T11:18:21.468Z,1.90
2023-03-12T11:23:28.332Z,2.00
2023-03-12T11:29:06.363Z,2.30
2023-03-12T11:34:20.857Z,1.80
2023-03-12T11:39:39.427Z,1.80
2023-03-12T11:45:06.963Z,2.07
2023-03-12T11:50:15.518Z,1.97
2023-03-12T11:55:41.793Z,1.97
2023-03-12T12:00:53.990Z,2.23
2023-03-12T12:06:36.812Z,1.57
2023-03-12T12:11:54.648Z,2.73
2023-03-12T12:17:12.730Z,2.07
2023-03-12T12:22:36.057Z,1.87
2023-03-12T12:28:01.374Z,2.77
2023-03-12T12:33:30.062Z,1.97
2023-03-12T12:39:05.103Z,2.10
2023-03-12T12:44:27.382Z,2.30
2023-03-12T12:49:54.530Z,1.83
2023-03-12T12:55:25.831Z,2.00
2023-03-12T13:00:44.150Z,1.93
2023-03-12T13:05:53.107Z,2.00
2023-03-12T13:11:02.157Z,2.10
2023-03-12T13:16:35.063Z,1.73
2023-03-12T13:21:42.027Z,2.03
2023-03-12T13:27:06.107Z,1.90
2023-03-12T13:32:34.878Z,2.07
2023-03-12T13:37:53.003Z,1.80
2023-03-12T13:43:17.703Z,1.60
2023-03-12T13:48:21.350Z,1.40
2023-03-12T13:53:33.660Z,2.27
2023-03-12T13:58:58.973Z,1.57
2023-03-12T14:04:08.298Z,1.80
2023-03-12T14:09:24.144Z,1.87
2023-03-12T14:14:45.197Z,2.17
2023-03-12T14:19:51.212Z,2.73
2023-03-12T14:24:56.956Z,2.50
2023-03-12T14:30:04.726Z,2.00
2023-03-12T14:35:40.254Z,2.90
2023-03-12T14:40:46.358Z,3.10
2023-03-12T14:46:02.556Z,2.43
2023-03-12T14:51:07.332Z,2.27
2023-03-12T14:56:24.232Z,3.20
2023-03-12T15:01:32.584Z,3.10
2023-03-12T15:06:38.679Z,2.83
2023-03-12T15:11:41.713Z,2.67
2023-03-12T15:16:44.751Z,2.90
2023-03-12T15:21:55.130Z,3.27
2023-03-12T15:26:58.015Z,2.93
2023-03-12T15:32:03.632Z,3.07
2023-03-12T15:37:38.128Z,2.33
2023-03-12T15:42:46.341Z,2.27
2023-03-12T15:47:49.801Z,3.07
2023-03-12T15:53:11.495Z,2.30
2023-03-12T15:58:29.839Z,2.10
2023-03-12T16:03:32.749Z,2.33
2023-03-12T16:08:44.987Z,2.73
2023-03-12T16:13:50.073Z,2.80
2023-03-12T16:18:52.946Z,3.60
2023-03-12T16:23:55.767Z,3.27
2023-03-12T16:28:58.931Z,3.33
2023-03-12T16:34:02.017Z,3.57
2023-03-12T16:39:05.169Z,3.13
2023-03-12T16:44:09.643Z,2.47
2023-03-12T16:49:17.105Z,2.93
2023-03-12T16:54:19.962Z,3.10
2023-03-12T16:59:26.756Z,3.23
2023-03-12T17:04:29.635Z,3.37
2023-03-12T17:09:32.887Z,3.40
2023-03-12T17:14:35.670Z,4.57
2023-03-12T17:19:38.417Z,2.67
2023-03-12T17:24:41.341Z,3.73
2023-03-12T17:29:44.235Z,3.47
2023-03-12T17:34:50.082Z,4.07
2023-03-12T17:39:53.043Z,3.43
2023-03-12T17:44:55.959Z,3.47
2023-03-12T17:49:58.807Z,3.33
2023-03-12T17:55:02.052Z,3.90
2023-03-12T18:00:11.530Z,3.50
2023-03-12T18:05:14.430Z,3.13
2023-03-12T18:10:18.018Z,3.77
2023-03-12T18:15:20.896Z,2.53
2023-03-12T18:20:36.136Z,3.00
2023-03-12T18:25:40.873Z,2.97
2023-03-12T18:30:46.855Z,3.43
2023-03-12T18:35:49.881Z,2.63
2023-03-12T18:40:53.729Z,2.60
2023-03-12T18:45:56.660Z,3.23
2023-03-12T18:50:59.467Z,3.57
2023-03-12T18:56:02.770Z,3.27
2023-03-12T19:01:05.654Z,2.40
2023-03-12T19:06:16.218Z,3.03
2023-03-12T19:11:19.459Z,2.90
2023-03-12T19:16:23.016Z,3.17
2023-03-12T19:21:25.881Z,2.87
2023-03-12T19:26:28.710Z,2.83
2023-03-12T19:31:31.626Z,3.50
2023-03-12T19:36:34.532Z,2.93
2023-03-12T19:41:37.424Z,3.03
2023-03-12T19:46:42.989Z,3.80
2023-03-12T19:51:45.806Z,3.30
2023-03-12T19:56:48.757Z,3.03
2023-03-12T20:01:51.721Z,3.27
2023-03-12T20:06:54.575Z,4.13
2023-03-12T20:11:57.357Z,3.47
2023-03-12T20:17:00.239Z,3.73
2023-03-12T20:22:03.159Z,4.37
2023-03-12T20:27:09.145Z,4.80
2023-03-12T20:32:12.384Z,3.43
2023-03-12T20:37:15.278Z,3.97
2023-03-12T20:42:18.127Z,3.43
2023-03-12T20:47:20.909Z,3.97
2023-03-12T20:52:23.780Z,3.37
2023-03-12T20:57:26.771Z,3.03
2023-03-12T21:02:29.681Z,3.20
2023-03-12T21:07:32.658Z,3.67
2023-03-12T21:12:35.633Z,2.93
2023-03-12T21:17:39.967Z,2.87
2023-03-12T21:22:43.557Z,3.33
2023-03-12T21:27:51.072Z,2.43
2023-03-12T21:32:54.667Z,3.87
2023-03-12T21:37:57.482Z,3.43
2023-03-12T21:43:00.234Z,2.97
2023-03-12T21:48:03.084Z,4.30
2023-03-12T21:53:21.267Z,3.03
2023-03-12T21:58:26.824Z,3.73
2023-03-12T22:03:29.951Z,3.47
2023-03-12T22:08:33.134Z,3.37
2023-03-12T22:13:36.022Z,4.40
2023-03-12T22:18:44.207Z,3.43
2023-03-12T22:23:48.114Z,3.47
2023-03-12T22:28:58.461Z,4.60
2023-03-12T22:34:01.274Z,4.00
2023-03-12T22:39:04.152Z,4.10
2023-03-12T22:44:09.017Z,3.70
2023-03-12T22:49:12.011Z,3.17
2023-03-12T22:54:14.910Z,3.43
2023-03-12T22:59:17.677Z,2.33
2023-03-12T23:04:20.563Z,2.47
2023-03-12T23:09:23.429Z,2.77
2023-03-12T23:14:26.245Z,2.30
2023-03-12T23:19:33.357Z,2.03
2023-03-12T23:24:36.358Z,2.43
2023-03-12T23:29:39.184Z,2.83
2023-03-12T23:34:42.027Z,2.00
2023-03-12T23:39:53.884Z,2.30
2023-03-12T23:44:57.095Z,2.03
2023-03-12T23:49:59.939Z,2.30
2023-03-12T23:55:02.817Z,2.50
